sensor_id;sensor_type;location;lat;lon;timestamp;pressure;altitude;pressure_sealevel;temperature;humidity
22580;BME280;11456;47.030;15.396;2023-05-09T00:00:52;98164.88;;;11.57;98.82
22580;BME280;11456;47.030;15.396;2023-05-09T00:03:18;98158.09;;;11.43;99.26
22580;BME280;11456;47.030;15.396;2023-05-09T00:05:45;98164.28;;;11.63;99.00
22580;BME280;11456;47.030;15.396;2023-05-09T00:08:11;98160.88;;;11.61;98.49
22580;BME280;11456;47.030;15.396;2023-05-09T00:10:38;98160.63;;;11.54;98.15
22580;BME280;11456;47.030;15.396;2023-05-09T00:13:04;98155.03;;;11.65;98.31
22580;BME280;11456;47.030;15.396;2023-05-09T00:15:31;98155.22;;;11.64;97.87
22580;BME280;11456;47.030;15.396;2023-05-09T00:17:58;98158.91;;;11.63;97.99
22580;BME280;11456;47.030;15.396;2023-05-09T00:20:24;98155.50;;;11.61;98.22
22580;BME280;11456;47.030;15.396;2023-05-09T00:22:51;98147.53;;;11.59;98.62
22580;BME280;11456;47.030;15.396;2023-05-09T00:25:17;98147.97;;;11.55;99.29
22580;BME280;11456;47.030;15.396;2023-05-09T00:27:44;98145.56;;;11.61;98.88
22580;BME280;11456;47.030;15.396;2023-05-09T00:30:11;98152.38;;;11.56;98.68
22580;BME280;11456;47.030;15.396;2023-05-09T00:32:37;98155.25;;;11.45;99.70
22580;BME280;11456;47.030;15.396;2023-05-09T00:35:06;98139.34;;;11.42;99.96
22580;BME280;11456;47.030;15.396;2023-05-09T00:37:32;98142.19;;;11.50;100.00
22580;BME280;11456;47.030;15.396;2023-05-09T00:39:59;98133.69;;;11.45;99.99
22580;BME280;11456;47.030;15.396;2023-05-09T00:42:25;98139.03;;;11.54;100.00
22580;BME280;11456;47.030;15.396;2023-05-09T00:44:52;98139.03;;;11.64;99.29
22580;BME280;11456;47.030;15.396;2023-05-09T00:47:19;98145.28;;;11.55;98.97
22580;BME280;11456;47.030;15.396;2023-05-09T00:49:46;98139.94;;;11.36;99.54
22580;BME280;11456;47.030;15.396;2023-05-09T00:52:12;98136.84;;;11.31;100.00
22580;BME280;11456;47.030;15.396;2023-05-09T00:54:39;98133.69;;;11.45;99.77
22580;BME280;11456;47.030;15.396;2023-05-09T00:57:05;98135.34;;;11.46;99.31
22580;BME280;11456;47.030;15.396;2023-05-09T00:59:32;98128.56;;;11.42;99.71
22580;BME280;11456;47.030;15.396;2023-05-09T01:01:59;98131.13;;;11.34;99.62
22580;BME280;11456;47.030;15.396;2023-05-09T01:04:26;98129.44;;;11.42;99.47
22580;BME280;11456;47.030;15.396;2023-05-09T01:20:01;98118.63;;;11.52;98.46
22580;BME280;11456;47.030;15.396;2023-05-09T01:22:32;98121.00;;;11.55;98.52
22580;BME280;11456;47.030;15.396;2023-05-09T01:30:02;98115.22;;;11.50;99.72
22580;BME280;11456;47.030;15.396;2023-05-09T01:32:30;98121.31;;;11.52;100.00
22580;BME280;11456;47.030;15.396;2023-05-09T01:34:58;98119.31;;;11.54;100.00
22580;BME280;11456;47.030;15.396;2023-05-09T01:37:33;98111.53;;;11.51;100.00
22580;BME280;11456;47.030;15.396;2023-05-09T01:40:06;98121.19;;;11.44;100.00
22580;BME280;11456;47.030;15.396;2023-05-09T01:45:29;98121.47;;;11.41;100.00
22580;BME280;11456;47.030;15.396;2023-05-09T01:47:56;98119.47;;;11.43;100.00
22580;BME280;11456;47.030;15.396;2023-05-09T01:50:24;98125.41;;;11.56;100.00
22580;BME280;11456;47.030;15.396;2023-05-09T01:52:54;98118.91;;;11.49;100.00
22580;BME280;11456;47.030;15.396;2023-05-09T01:55:21;98120.59;;;11.50;100.00
22580;BME280;11456;47.030;15.396;2023-05-09T01:57:51;98113.81;;;11.36;100.00
22580;BME280;11456;47.030;15.396;2023-05-09T02:00:18;98115.25;;;11.31;100.00
22580;BME280;11456;47.030;15.396;2023-05-09T02:02:45;98108.03;;;11.21;100.00
22580;BME280;11456;47.030;15.396;2023-05-09T02:05:14;98115.56;;;11.08;100.00
22580;BME280;11456;47.030;15.396;2023-05-09T02:07:41;98113.84;;;11.26;100.00
22580;BME280;11456;47.030;15.396;2023-05-09T02:10:08;98124.16;;;11.41;100.00
22580;BME280;11456;47.030;15.396;2023-05-09T02:12:36;98121.88;;;11.46;100.00
22580;BME280;11456;47.030;15.396;2023-05-09T02:15:03;98127.56;;;12.44;94.77
22580;BME280;11456;47.030;15.396;2023-05-09T02:17:30;98130.44;;;11.88;98.16
22580;BME280;11456;47.030;15.396;2023-05-09T02:19:57;98127.41;;;11.54;99.22
22580;BME280;11456;47.030;15.396;2023-05-09T02:22:24;98132.56;;;11.84;99.52
22580;BME280;11456;47.030;15.396;2023-05-09T02:24:51;98122.56;;;11.57;100.00
22580;BME280;11456;47.030;15.396;2023-05-09T02:27:17;98114.31;;;11.59;100.00
22580;BME280;11456;47.030;15.396;2023-05-09T02:29:48;98120.53;;;11.69;100.00
22580;BME280;11456;47.030;15.396;2023-05-09T02:32:18;98121.97;;;11.63;100.00
22580;BME280;11456;47.030;15.396;2023-05-09T02:34:46;98122.94;;;11.72;100.00
22580;BME280;11456;47.030;15.396;2023-05-09T02:37:14;98116.97;;;11.78;100.00
22580;BME280;11456;47.030;15.396;2023-05-09T02:39:40;98121.69;;;11.76;99.79
22580;BME280;11456;47.030;15.396;2023-05-09T02:42:08;98122.84;;;11.54;100.00
22580;BME280;11456;47.030;15.396;2023-05-09T02:44:35;98119.47;;;11.43;100.00
22580;BME280;11456;47.030;15.396;2023-05-09T02:47:02;98108.66;;;11.52;100.00
22580;BME280;11456;47.030;15.396;2023-05-09T02:49:29;98118.16;;;11.56;100.00
22580;BME280;11456;47.030;15.396;2023-05-09T02:51:59;98110.88;;;11.76;100.00
22580;BME280;11456;47.030;15.396;2023-05-09T02:54:26;98115.38;;;11.85;99.45
22580;BME280;11456;47.030;15.396;2023-05-09T02:56:53;98113.88;;;11.63;99.63
22580;BME280;11456;47.030;15.396;2023-05-09T02:59:19;98105.22;;;11.60;99.97
22580;BME280;11456;47.030;15.396;2023-05-09T03:01:46;98115.75;;;11.63;100.00
22580;BME280;11456;47.030;15.396;2023-05-09T03:04:13;98113.19;;;11.61;100.00
22580;BME280;11456;47.030;15.396;2023-05-09T03:06:40;98121.13;;;11.63;100.00
22580;BME280;11456;47.030;15.396;2023-05-09T03:09:07;98121.06;;;11.73;99.86
22580;BME280;11456;47.030;15.396;2023-05-09T03:11:34;98118.38;;;11.82;99.46
22580;BME280;11456;47.030;15.396;2023-05-09T03:14:02;98118.97;;;11.76;99.17
22580;BME280;11456;47.030;15.396;2023-05-09T03:16:29;98119.91;;;11.85;98.60
22580;BME280;11456;47.030;15.396;2023-05-09T03:18:57;98119.78;;;11.86;98.04
22580;BME280;11456;47.030;15.396;2023-05-09T03:21:23;98118.00;;;11.77;98.42
22580;BME280;11456;47.030;15.396;2023-05-09T03:23:50;98122.06;;;11.81;98.14
22580;BME280;11456;47.030;15.396;2023-05-09T03:26:16;98120.22;;;11.72;97.28
22580;BME280;11456;47.030;15.396;2023-05-09T03:28:43;98118.84;;;11.68;97.08
22580;BME280;11456;47.030;15.396;2023-05-09T03:31:10;98119.69;;;11.69;96.48
22580;BME280;11456;47.030;15.396;2023-05-09T03:33:36;98129.63;;;11.68;95.56
22580;BME280;11456;47.030;15.396;2023-05-09T03:36:03;98133.19;;;11.69;93.73
22580;BME280;11456;47.030;15.396;2023-05-09T03:38:30;98134.22;;;11.58;93.33
22580;BME280;11456;47.030;15.396;2023-05-09T03:40:57;98125.16;;;11.49;92.02
22580;BME280;11456;47.030;15.396;2023-05-09T03:43:24;98132.78;;;11.54;91.84
22580;BME280;11456;47.030;15.396;2023-05-09T03:45:51;98127.97;;;11.48;90.39
22580;BME280;11456;47.030;15.396;2023-05-09T03:48:18;98136.66;;;11.51;89.75
22580;BME280;11456;47.030;15.396;2023-05-09T03:50:48;98129.09;;;11.55;89.56
22580;BME280;11456;47.030;15.396;2023-05-09T03:53:15;98135.50;;;11.54;89.21
22580;BME280;11456;47.030;15.396;2023-05-09T03:55:44;98142.31;;;11.58;88.75
22580;BME280;11456;47.030;15.396;2023-05-09T03:58:12;98141.88;;;11.53;89.07
22580;BME280;11456;47.030;15.396;2023-05-09T04:00:41;98146.00;;;11.57;88.65
22580;BME280;11456;47.030;15.396;2023-05-09T04:03:13;98139.31;;;11.61;88.58
22580;BME280;11456;47.030;15.396;2023-05-09T04:05:44;98141.81;;;11.72;87.30
22580;BME280;11456;47.030;15.396;2023-05-09T04:08:19;98151.50;;;11.65;87.29
22580;BME280;11456;47.030;15.396;2023-05-09T04:10:46;98154.22;;;11.55;87.44
22580;BME280;11456;47.030;15.396;2023-05-09T04:13:12;98156.59;;;11.68;86.33
22580;BME280;11456;47.030;15.396;2023-05-09T04:15:39;98156.03;;;11.74;86.54
22580;BME280;11456;47.030;15.396;2023-05-09T04:18:06;98150.38;;;11.77;86.58
22580;BME280;11456;47.030;15.396;2023-05-09T04:20:33;98152.88;;;11.88;85.97
22580;BME280;11456;47.030;15.396;2023-05-09T04:23:01;98161.16;;;11.77;86.24
22580;BME280;11456;47.030;15.396;2023-05-09T04:25:28;98156.03;;;11.74;85.80
22580;BME280;11456;47.030;15.396;2023-05-09T04:27:56;98156.19;;;11.63;86.51
22580;BME280;11456;47.030;15.396;2023-05-09T04:30:23;98149.81;;;11.64;86.74
22580;BME280;11456;47.030;15.396;2023-05-09T04:32:52;98161.25;;;11.85;85.74
22580;BME280;11456;47.030;15.396;2023-05-09T04:35:20;98153.47;;;11.82;84.93
22580;BME280;11456;47.030;15.396;2023-05-09T04:37:50;98152.03;;;11.78;85.45
22580;BME280;11456;47.030;15.396;2023-05-09T04:40:17;98153.16;;;11.85;84.96
22580;BME280;11456;47.030;15.396;2023-05-09T04:42:56;98159.16;;;11.79;85.09
22580;BME280;11456;47.030;15.396;2023-05-09T04:45:27;98154.59;;;11.89;83.60
22580;BME280;11456;47.030;15.396;2023-05-09T04:47:55;98147.47;;;11.88;83.46
22580;BME280;11456;47.030;15.396;2023-05-09T04:50:21;98154.50;;;12.09;82.21
22580;BME280;11456;47.030;15.396;2023-05-09T04:52:48;98152.41;;;12.02;82.48
22580;BME280;11456;47.030;15.396;2023-05-09T04:55:15;98155.09;;;12.02;81.99
22580;BME280;11456;47.030;15.396;2023-05-09T04:57:45;98146.22;;;11.73;83.70
22580;BME280;11456;47.030;15.396;2023-05-09T05:00:13;98162.59;;;12.09;81.36
22580;BME280;11456;47.030;15.396;2023-05-09T05:02:43;98158.78;;;12.01;80.99
22580;BME280;11456;47.030;15.396;2023-05-09T05:05:10;98168.28;;;12.33;80.13
22580;BME280;11456;47.030;15.396;2023-05-09T05:07:40;98153.38;;;12.01;82.17
22580;BME280;11456;47.030;15.396;2023-05-09T05:10:09;98159.66;;;11.92;83.11
22580;BME280;11456;47.030;15.396;2023-05-09T05:12:37;98162.44;;;12.37;79.41
22580;BME280;11456;47.030;15.396;2023-05-09T05:15:07;98162.88;;;12.33;79.60
22580;BME280;11456;47.030;15.396;2023-05-09T05:17:34;98170.53;;;12.10;80.67
22580;BME280;11456;47.030;15.396;2023-05-09T05:20:02;98169.72;;;12.00;81.03
22580;BME280;11456;47.030;15.396;2023-05-09T05:22:32;98175.38;;;12.07;81.41
22580;BME280;11456;47.030;15.396;2023-05-09T05:24:59;98176.38;;;12.05;81.47
22580;BME280;11456;47.030;15.396;2023-05-09T05:27:25;98179.38;;;12.30;79.98
22580;BME280;11456;47.030;15.396;2023-05-09T05:29:52;98180.13;;;11.95;80.76
22580;BME280;11456;47.030;15.396;2023-05-09T05:32:19;98178.38;;;12.03;80.73
22580;BME280;11456;47.030;15.396;2023-05-09T05:34:46;98181.56;;;11.89;82.19
22580;BME280;11456;47.030;15.396;2023-05-09T05:37:13;98176.69;;;12.02;81.65
22580;BME280;11456;47.030;15.396;2023-05-09T05:39:40;98182.28;;;12.19;78.13
22580;BME280;11456;47.030;15.396;2023-05-09T05:42:07;98173.28;;;12.00;79.25
22580;BME280;11456;47.030;15.396;2023-05-09T05:44:34;98171.97;;;12.32;79.13
22580;BME280;11456;47.030;15.396;2023-05-09T05:47:00;98182.78;;;12.32;75.57
22580;BME280;11456;47.030;15.396;2023-05-09T05:49:27;98173.28;;;12.00;78.10
22580;BME280;11456;47.030;15.396;2023-05-09T05:51:54;98174.16;;;11.91;79.62
22580;BME280;11456;47.030;15.396;2023-05-09T05:54:21;98173.44;;;12.54;76.41
22580;BME280;11456;47.030;15.396;2023-05-09T05:56:47;98182.00;;;12.22;75.62
22580;BME280;11456;47.030;15.396;2023-05-09T05:59:14;98180.91;;;12.15;76.41
22580;BME280;11456;47.030;15.396;2023-05-09T06:01:41;98171.59;;;12.54;75.61
22580;BME280;11456;47.030;15.396;2023-05-09T06:04:08;98173.88;;;12.49;75.39
22580;BME280;11456;47.030;15.396;2023-05-09T06:06:35;98166.66;;;12.22;77.16
22580;BME280;11456;47.030;15.396;2023-05-09T06:09:01;98176.88;;;12.19;76.52
22580;BME280;11456;47.030;15.396;2023-05-09T06:11:28;98163.34;;;11.91;77.42
22580;BME280;11456;47.030;15.396;2023-05-09T06:13:54;98178.09;;;12.34;76.90
22580;BME280;11456;47.030;15.396;2023-05-09T06:16:21;98170.34;;;11.84;75.69
22580;BME280;11456;47.030;15.396;2023-05-09T06:18:48;98174.75;;;11.85;77.67
22580;BME280;11456;47.030;15.396;2023-05-09T06:21:15;98168.16;;;11.97;77.25
22580;BME280;11456;47.030;15.396;2023-05-09T06:23:41;98169.03;;;12.53;75.76
22580;BME280;11456;47.030;15.396;2023-05-09T06:26:28;98167.47;;;12.50;74.00
22580;BME280;11456;47.030;15.396;2023-05-09T06:28:55;98161.69;;;12.80;73.80
22580;BME280;11456;47.030;15.396;2023-05-09T06:31:21;98162.41;;;12.65;72.78
22580;BME280;11456;47.030;15.396;2023-05-09T06:33:51;98153.28;;;12.48;74.32
22580;BME280;11456;47.030;15.396;2023-05-09T06:36:17;98161.31;;;13.11;74.08
22580;BME280;11456;47.030;15.396;2023-05-09T06:38:44;98158.31;;;13.14;71.81
22580;BME280;11456;47.030;15.396;2023-05-09T06:41:10;98160.25;;;13.21;68.97
22580;BME280;11456;47.030;15.396;2023-05-09T06:43:37;98161.53;;;12.64;72.49
22580;BME280;11456;47.030;15.396;2023-05-09T06:46:03;98169.75;;;12.27;73.58
22580;BME280;11456;47.030;15.396;2023-05-09T06:48:30;98154.06;;;12.76;72.94
22580;BME280;11456;47.030;15.396;2023-05-09T06:50:56;98149.50;;;13.12;72.76
22580;BME280;11456;47.030;15.396;2023-05-09T06:53:23;98150.53;;;13.54;70.07
22580;BME280;11456;47.030;15.396;2023-05-09T06:55:49;98144.34;;;13.44;69.89
22580;BME280;11456;47.030;15.396;2023-05-09T06:58:16;98146.13;;;13.53;70.10
22580;BME280;11456;47.030;15.396;2023-05-09T07:00:42;98143.63;;;13.34;71.09
22580;BME280;11456;47.030;15.396;2023-05-09T07:03:09;98135.69;;;13.92;68.17
22580;BME280;11456;47.030;15.396;2023-05-09T07:05:37;98149.03;;;13.34;67.85
22580;BME280;11456;47.030;15.396;2023-05-09T07:08:03;98147.25;;;13.69;68.89
22580;BME280;11456;47.030;15.396;2023-05-09T07:10:30;98143.53;;;13.70;68.28
22580;BME280;11456;47.030;15.396;2023-05-09T07:12:56;98142.34;;;13.46;68.99
22580;BME280;11456;47.030;15.396;2023-05-09T07:15:23;98135.34;;;13.36;66.85
22580;BME280;11456;47.030;15.396;2023-05-09T07:18:05;98139.97;;;14.03;67.05
22580;BME280;11456;47.030;15.396;2023-05-09T07:20:32;98139.34;;;13.32;68.37
22580;BME280;11456;47.030;15.396;2023-05-09T07:22:58;98142.34;;;12.85;70.58
22580;BME280;11456;47.030;15.396;2023-05-09T07:25:25;98135.41;;;13.44;68.12
22580;BME280;11456;47.030;15.396;2023-05-09T07:27:51;98136.41;;;13.69;66.97
22580;BME280;11456;47.030;15.396;2023-05-09T07:30:18;98127.59;;;13.41;66.14
22580;BME280;11456;47.030;15.396;2023-05-09T07:32:44;98132.38;;;13.73;66.17
22580;BME280;11456;47.030;15.396;2023-05-09T07:35:11;98137.16;;;13.53;67.33
22580;BME280;11456;47.030;15.396;2023-05-09T07:37:38;98117.06;;;13.55;66.16
22580;BME280;11456;47.030;15.396;2023-05-09T07:40:06;98118.28;;;13.35;69.79
22580;BME280;11456;47.030;15.396;2023-05-09T07:42:32;98108.03;;;14.57;67.22
22580;BME280;11456;47.030;15.396;2023-05-09T07:44:59;98115.88;;;14.84;65.31
22580;BME280;11456;47.030;15.396;2023-05-09T07:47:25;98111.09;;;14.86;61.91
22580;BME280;11456;47.030;15.396;2023-05-09T07:49:52;98108.22;;;14.71;64.72
22580;BME280;11456;47.030;15.396;2023-05-09T07:52:18;98108.47;;;14.02;64.83
22580;BME280;11456;47.030;15.396;2023-05-09T07:54:45;98113.53;;;13.97;64.25
22580;BME280;11456;47.030;15.396;2023-05-09T07:57:12;98102.50;;;14.32;65.79
22580;BME280;11456;47.030;15.396;2023-05-09T07:59:38;98110.75;;;14.81;63.80
22580;BME280;11456;47.030;15.396;2023-05-09T08:02:05;98107.91;;;15.07;61.37
22580;BME280;11456;47.030;15.396;2023-05-09T08:04:32;98104.00;;;15.01;63.73
22580;BME280;11456;47.030;15.396;2023-05-09T08:06:58;98104.47;;;15.70;61.57
22580;BME280;11456;47.030;15.396;2023-05-09T08:09:25;98098.34;;;16.15;59.11
22580;BME280;11456;47.030;15.396;2023-05-09T08:11:51;98099.53;;;16.20;60.59
22580;BME280;11456;47.030;15.396;2023-05-09T08:14:18;98104.00;;;15.42;60.79
22580;BME280;11456;47.030;15.396;2023-05-09T08:16:44;98093.91;;;16.22;57.41
22580;BME280;11456;47.030;15.396;2023-05-09T08:19:11;98093.25;;;15.73;59.56
22580;BME280;11456;47.030;15.396;2023-05-09T08:21:37;98091.09;;;15.19;58.59
22580;BME280;11456;47.030;15.396;2023-05-09T08:24:04;98095.88;;;15.09;58.86
22580;BME280;11456;47.030;15.396;2023-05-09T08:26:33;98084.63;;;15.61;59.11
22580;BME280;11456;47.030;15.396;2023-05-09T08:29:00;98084.63;;;15.45;58.20
22580;BME280;11456;47.030;15.396;2023-05-09T08:31:27;98080.63;;;15.16;58.22
22580;BME280;11456;47.030;15.396;2023-05-09T08:33:53;98085.69;;;15.36;59.15
22580;BME280;11456;47.030;15.396;2023-05-09T08:36:20;98086.38;;;14.97;58.57
22580;BME280;11456;47.030;15.396;2023-05-09T08:38:46;98093.31;;;14.59;60.91
22580;BME280;11456;47.030;15.396;2023-05-09T08:41:13;98085.88;;;15.02;59.22
22580;BME280;11456;47.030;15.396;2023-05-09T08:43:39;98083.63;;;15.46;58.04
22580;BME280;11456;47.030;15.396;2023-05-09T08:46:08;98085.69;;;14.87;61.20
22580;BME280;11456;47.030;15.396;2023-05-09T08:48:35;98088.00;;;15.63;57.24
22580;BME280;11456;47.030;15.396;2023-05-09T08:51:05;98095.50;;;15.45;59.77
22580;BME280;11456;47.030;15.396;2023-05-09T08:53:31;98093.75;;;14.38;62.00
22580;BME280;11456;47.030;15.396;2023-05-09T08:55:58;98094.75;;;14.37;62.00
22580;BME280;11456;47.030;15.396;2023-05-09T08:58:26;98091.38;;;13.93;66.11
22580;BME280;11456;47.030;15.396;2023-05-09T09:00:53;98095.69;;;15.03;62.71
22580;BME280;11456;47.030;15.396;2023-05-09T09:03:20;98095.69;;;15.19;61.70
22580;BME280;11456;47.030;15.396;2023-05-09T09:05:48;98098.72;;;14.92;61.79
22580;BME280;11456;47.030;15.396;2023-05-09T09:08:16;98087.59;;;14.36;63.93
22580;BME280;11456;47.030;15.396;2023-05-09T09:10:43;98092.44;;;14.67;65.41
22580;BME280;11456;47.030;15.396;2023-05-09T09:13:13;98093.47;;;14.66;65.39
22580;BME280;11456;47.030;15.396;2023-05-09T09:15:40;98078.78;;;14.34;65.95
22580;BME280;11456;47.030;15.396;2023-05-09T09:18:08;98079.88;;;14.50;65.25
22580;BME280;11456;47.030;15.396;2023-05-09T09:20:40;98084.63;;;14.48;65.45
22580;BME280;11456;47.030;15.396;2023-05-09T09:23:10;98076.16;;;15.23;62.99
22580;BME280;11456;47.030;15.396;2023-05-09T09:25:37;98082.19;;;15.82;62.93
22580;BME280;11456;47.030;15.396;2023-05-09T09:28:04;98073.50;;;14.17;66.00
22580;BME280;11456;47.030;15.396;2023-05-09T09:30:31;98074.50;;;14.98;65.08
22580;BME280;11456;47.030;15.396;2023-05-09T09:32:57;98065.31;;;15.23;64.20
22580;BME280;11456;47.030;15.396;2023-05-09T09:35:24;98072.31;;;15.02;63.78
22580;BME280;11456;47.030;15.396;2023-05-09T09:37:55;98076.84;;;14.85;64.89
22580;BME280;11456;47.030;15.396;2023-05-09T09:40:25;98078.53;;;14.46;65.32
22580;BME280;11456;47.030;15.396;2023-05-09T09:42:51;98077.69;;;15.18;62.09
22580;BME280;11456;47.030;15.396;2023-05-09T09:45:18;98086.34;;;14.65;66.12
22580;BME280;11456;47.030;15.396;2023-05-09T09:47:46;98082.28;;;14.69;65.22
22580;BME280;11456;47.030;15.396;2023-05-09T09:50:16;98074.16;;;14.93;64.74
22580;BME280;11456;47.030;15.396;2023-05-09T09:52:50;98070.44;;;14.94;63.54
22580;BME280;11456;47.030;15.396;2023-05-09T09:55:18;98064.66;;;14.65;65.53
22580;BME280;11456;47.030;15.396;2023-05-09T09:57:45;98064.81;;;15.28;64.14
22580;BME280;11456;47.030;15.396;2023-05-09T10:00:23;98061.97;;;14.81;64.44
22580;BME280;11456;47.030;15.396;2023-05-09T10:02:52;98060.41;;;15.98;60.58
22580;BME280;11456;47.030;15.396;2023-05-09T10:07:48;98063.28;;;14.44;66.59
22580;BME280;11456;47.030;15.396;2023-05-09T10:10:15;98061.47;;;14.77;64.36
22580;BME280;11456;47.030;15.396;2023-05-09T10:12:42;98053.66;;;15.23;62.56
22580;BME280;11456;47.030;15.396;2023-05-09T10:15:09;98054.16;;;15.10;62.70
22580;BME280;11456;47.030;15.396;2023-05-09T10:17:37;98052.47;;;15.09;63.48
22580;BME280;11456;47.030;15.396;2023-05-09T10:20:04;98048.69;;;15.35;63.21
22580;BME280;11456;47.030;15.396;2023-05-09T10:22:31;98047.69;;;15.19;63.73
22580;BME280;11456;47.030;15.396;2023-05-09T10:25:07;98053.44;;;15.33;61.82
22580;BME280;11456;47.030;15.396;2023-05-09T10:27:40;98044.56;;;15.63;60.14
22580;BME280;11456;47.030;15.396;2023-05-09T10:30:16;98048.44;;;15.69;61.28
22580;BME280;11456;47.030;15.396;2023-05-09T10:32:53;98049.66;;;15.66;61.48
22580;BME280;11456;47.030;15.396;2023-05-09T10:35:22;98055.09;;;15.66;60.78
22580;BME280;11456;47.030;15.396;2023-05-09T10:37:49;98050.72;;;15.24;63.15
22580;BME280;11456;47.030;15.396;2023-05-09T10:40:17;98047.13;;;16.03;62.18
22580;BME280;11456;47.030;15.396;2023-05-09T10:42:46;98048.59;;;16.14;60.08
22580;BME280;11456;47.030;15.396;2023-05-09T10:45:12;98048.97;;;15.72;60.22
22580;BME280;11456;47.030;15.396;2023-05-09T10:47:40;98044.22;;;15.50;62.46
22580;BME280;11456;47.030;15.396;2023-05-09T10:50:07;98042.28;;;15.19;63.00
22580;BME280;11456;47.030;15.396;2023-05-09T10:53:03;98032.25;;;15.36;62.73
22580;BME280;11456;47.030;15.396;2023-05-09T10:55:21;98035.69;;;15.85;60.73
22580;BME280;11456;47.030;15.396;2023-05-09T10:57:51;98019.41;;;16.39;61.22
22580;BME280;11456;47.030;15.396;2023-05-09T11:00:23;98022.94;;;16.17;60.99
22580;BME280;11456;47.030;15.396;2023-05-09T11:03:11;98021.34;;;16.53;58.08
22580;BME280;11456;47.030;15.396;2023-05-09T11:05:39;98017.16;;;17.11;54.97
22580;BME280;11456;47.030;15.396;2023-05-09T11:08:22;98014.59;;;16.49;58.27
22580;BME280;11456;47.030;15.396;2023-05-09T11:10:51;98020.63;;;16.59;60.33
22580;BME280;11456;47.030;15.396;2023-05-09T11:13:18;98009.59;;;17.21;56.65
22580;BME280;11456;47.030;15.396;2023-05-09T11:18:27;98003.13;;;18.31;54.05
22580;BME280;11456;47.030;15.396;2023-05-09T11:20:54;97999.47;;;17.74;54.40
22580;BME280;11456;47.030;15.396;2023-05-09T11:23:22;98000.03;;;17.84;52.10
22580;BME280;11456;47.030;15.396;2023-05-09T11:25:50;98001.31;;;18.17;52.26
22580;BME280;11456;47.030;15.396;2023-05-09T11:31:14;97991.69;;;18.21;51.38
22580;BME280;11456;47.030;15.396;2023-05-09T11:33:42;97985.50;;;17.62;51.59
22580;BME280;11456;47.030;15.396;2023-05-09T11:36:18;97980.88;;;17.33;54.19
22580;BME280;11456;47.030;15.396;2023-05-09T11:38:46;97976.75;;;17.52;54.18
22580;BME280;11456;47.030;15.396;2023-05-09T11:41:13;97974.69;;;17.69;53.67
22580;BME280;11456;47.030;15.396;2023-05-09T11:43:41;97970.13;;;18.05;52.64
22580;BME280;11456;47.030;15.396;2023-05-09T11:46:07;97965.75;;;17.75;52.08
22580;BME280;11456;47.030;15.396;2023-05-09T11:48:37;97962.41;;;18.66;50.18
22580;BME280;11456;47.030;15.396;2023-05-09T11:51:04;97960.03;;;18.84;49.96
22580;BME280;11456;47.030;15.396;2023-05-09T11:53:31;97958.09;;;18.57;51.06
22580;BME280;11456;47.030;15.396;2023-05-09T11:56:01;97961.53;;;18.23;52.52
22580;BME280;11456;47.030;15.396;2023-05-09T11:58:27;97955.72;;;18.68;50.23
22580;BME280;11456;47.030;15.396;2023-05-09T12:00:54;97951.97;;;18.97;49.36
22580;BME280;11456;47.030;15.396;2023-05-09T12:03:20;97948.53;;;19.16;49.48
22580;BME280;11456;47.030;15.396;2023-05-09T12:05:47;97940.66;;;20.17;47.27
22580;BME280;11456;47.030;15.396;2023-05-09T12:08:14;97942.25;;;18.88;49.11
22580;BME280;11456;47.030;15.396;2023-05-09T12:10:41;97936.53;;;18.83;49.00
22580;BME280;11456;47.030;15.396;2023-05-09T12:13:07;97939.06;;;18.85;49.78
22580;BME280;11456;47.030;15.396;2023-05-09T12:15:35;97944.19;;;19.29;49.69
22580;BME280;11456;47.030;15.396;2023-05-09T12:18:05;97934.56;;;19.67;47.92
22580;BME280;11456;47.030;15.396;2023-05-09T12:20:43;97925.34;;;19.40;49.78
22580;BME280;11456;47.030;15.396;2023-05-09T12:23:10;97921.66;;;19.48;49.13
22580;BME280;11456;47.030;15.396;2023-05-09T12:25:37;97926.88;;;21.04;45.70
22580;BME280;11456;47.030;15.396;2023-05-09T12:28:04;97925.16;;;20.37;45.93
22580;BME280;11456;47.030;15.396;2023-05-09T12:30:31;97924.06;;;19.02;48.85
22580;BME280;11456;47.030;15.396;2023-05-09T12:32:57;97919.31;;;19.45;48.17
22580;BME280;11456;47.030;15.396;2023-05-09T12:35:24;97924.44;;;18.92;48.60
22580;BME280;11456;47.030;15.396;2023-05-09T12:37:54;97914.31;;;18.43;49.73
22580;BME280;11456;47.030;15.396;2023-05-09T12:40:21;97911.88;;;18.49;50.15
22580;BME280;11456;47.030;15.396;2023-05-09T12:42:48;97904.19;;;18.80;49.26
22580;BME280;11456;47.030;15.396;2023-05-09T12:45:15;97897.75;;;19.22;48.80
22580;BME280;11456;47.030;15.396;2023-05-09T12:47:42;97896.78;;;18.53;50.21
22580;BME280;11456;47.030;15.396;2023-05-09T12:50:10;97892.06;;;17.97;52.46
22580;BME280;11456;47.030;15.396;2023-05-09T12:52:38;97888.88;;;18.58;49.88
22580;BME280;11456;47.030;15.396;2023-05-09T12:55:25;97883.16;;;18.74;48.35
22580;BME280;11456;47.030;15.396;2023-05-09T12:57:59;97879.91;;;19.19;49.37
22580;BME280;11456;47.030;15.396;2023-05-09T13:00:27;97870.09;;;19.32;48.53
22580;BME280;11456;47.030;15.396;2023-05-09T13:02:53;97879.84;;;17.72;50.46
22580;BME280;11456;47.030;15.396;2023-05-09T13:05:21;97876.03;;;18.09;50.61
22580;BME280;11456;47.030;15.396;2023-05-09T13:07:48;97858.78;;;18.23;49.07
22580;BME280;11456;47.030;15.396;2023-05-09T13:10:16;97861.25;;;17.46;52.30
22580;BME280;11456;47.030;15.396;2023-05-09T13:12:49;97858.91;;;18.36;49.91
22580;BME280;11456;47.030;15.396;2023-05-09T13:15:17;97851.88;;;18.06;51.42
22580;BME280;11456;47.030;15.396;2023-05-09T13:17:48;97855.59;;;17.48;53.33
22580;BME280;11456;47.030;15.396;2023-05-09T13:20:15;97854.34;;;17.00;55.07